• Join FlightAware (Why Join?)
  • Login
  • US Flag 
10:51AM EDT


 

Airport Tracker/Info


-or-


 

Live Flight TrackerFlight Track Log ✈ JST220 ✈ 23-Apr-2013 ✈ NZQN - YMML / MEL

Flight Track Log - Related Links

Times and Time Zones

All times are in EDT time to prevent confusion due to time zone crossing. See the JST220 flight status page for this flight to view local times or setup timezone preferences in your user account.

Time Position Orientation Groundspeed Altitude Reporting Facility
EDT Latitude Longitude Course Direction KTS MPH feet Rate Location/Type
06:55PM -43.6991 162.4921 288° West 36,000  Level Aus ATC (Calculated)
06:57PM -43.6305 162.1982 288° West 36,000  Level Aus ATC (Calculated)
06:58PM -43.5854 162.0072 288° West 36,000  Level Aus ATC (Calculated)
06:59PM -43.5407 161.8195 288° West 36,000  Level Aus ATC (Calculated)
07:00PM -43.5305 161.7771 288° West  Level FlightAware Approximate
07:01PM -43.4889 161.6039 288° West  Level FlightAware Approximate
07:02PM -43.4541 161.4603 288° West  Level FlightAware Approximate
07:03PM -43.4192 161.3169 289° West  Level FlightAware Approximate
07:04PM -43.3840 161.1737 289° West  Level FlightAware Approximate
07:05PM -43.3487 161.0307 289° West  Level FlightAware Approximate
07:06PM -43.3132 160.8878 289° West  Level FlightAware Approximate
07:07PM -43.2776 160.7450 289° West  Level FlightAware Approximate
07:08PM -43.2417 160.6025 289° West  Level FlightAware Approximate
07:09PM -43.2057 160.4601 289° West  Level FlightAware Approximate
07:10PM -43.1695 160.3179 289° West  Level FlightAware Approximate
07:11PM -43.1331 160.1758 289° West  Level FlightAware Approximate
07:12PM -43.0966 160.0340 289° West  Level FlightAware Approximate
07:13PM -43.0599 159.8922 289° West  Level FlightAware Approximate
07:14PM -43.0230 159.7507 290° West  Level FlightAware Approximate
07:15PM -42.9859 159.6093 290° West  Level FlightAware Approximate
07:16PM -42.9487 159.4681 290° West  Level FlightAware Approximate
07:17PM -42.9112 159.3271 290° West  Level FlightAware Approximate
07:18PM -42.8736 159.1862 290° West  Level FlightAware Approximate
07:19PM -42.8359 159.0456 290° West  Level FlightAware Approximate
07:20PM -42.7979 158.9050 290° West  Level FlightAware Approximate
07:21PM -42.7598 158.7647 290° West  Level FlightAware Approximate
07:21PM -42.6738 158.4509 291° West 36,000  Level Aus ATC (Calculated)
07:23PM -42.6106 158.2227 291° West  Level FlightAware Approximate
07:24PM -42.5716 158.0832 291° West  Level FlightAware Approximate
07:25PM -42.5325 157.9439 291° West  Level FlightAware Approximate
07:26PM -42.4933 157.8047 291° West  Level FlightAware Approximate
07:27PM -42.4538 157.6658 291° West  Level FlightAware Approximate
07:28PM -42.4142 157.5270 291° West  Level FlightAware Approximate
07:29PM -42.3744 157.3884 291° West  Level FlightAware Approximate
07:30PM -42.3345 157.2499 291° West  Level FlightAware Approximate
07:30PM -42.2839 157.0756 291° West 36,000  Level Aus ATC (Calculated)
07:31PM -42.2435 156.9375 291° West  Level FlightAware Approximate
07:31PM -42.2534 156.9710 292° West 36,000  Level Aus ATC (Calculated)
07:31PM -42.2534 156.9710 292° West 36,000  Level Aus ATC (Calculated)
07:32PM -42.2232 156.8681 292° West 36,000  Level Aus ATC (Calculated)
07:34PM -42.1487 156.6156 292° West  Level FlightAware Approximate
07:35PM -42.1079 156.4782 292° West  Level FlightAware Approximate
07:36PM -42.0668 156.3409 292° West  Level FlightAware Approximate
07:37PM -42.0256 156.2038 292° West  Level FlightAware Approximate
07:37PM -42.0129 156.1617 292° West 36,000  Level Aus ATC (Calculated)
07:38PM -41.9715 156.0248 292° West  Level FlightAware Approximate
07:39PM -41.9299 155.8881 292° West  Level FlightAware Approximate
07:40PM -41.8882 155.7516 292° West  Level FlightAware Approximate
07:40PM -41.8769 155.7147 292° West 36,000  Level Aus ATC (Calculated)
07:40PM -41.8263 155.5504 293° West 36,000  Level Aus ATC (Calculated)
07:41PM -41.8349 155.5784 292° West  Level FlightAware Approximate
07:42PM -41.7799 155.4007 293° West  Level FlightAware Approximate
07:43PM -41.7376 155.2648 293° West  Level FlightAware Approximate
07:44PM -41.6952 155.1291 293° West  Level FlightAware Approximate
07:45PM -41.6525 154.9936 293° West  Level FlightAware Approximate
07:46PM -41.6097 154.8583 293° West  Level FlightAware Approximate
07:47PM -41.5668 154.7231 293° West  Level FlightAware Approximate
07:48PM -41.5237 154.5882 293° West  Level FlightAware Approximate
07:48PM -41.4821 154.4588 293° West 36,000  Level Aus ATC (Calculated)
07:49PM -41.4423 154.3354 293° West 36,000 60 Level Aus ATC (Calculated)
07:50PM -41.4155 154.2524 293° West  Level FlightAware Approximate
07:51PM -41.3689 154.1092 293° West  Level FlightAware Approximate
07:52PM -41.3251 153.9750 293° West  Level FlightAware Approximate
07:52PM -41.3259 153.9776 294° West 36,000  Level Aus ATC (Calculated)
07:53PM -41.2819 153.8436 294° West  Level FlightAware Approximate
07:54PM -41.2378 153.7098 294° West  Level FlightAware Approximate
07:54PM -41.1838 153.5470 294° West 36,000  Level Aus ATC (Calculated)
07:56PM -41.1297 153.3847 294° West  Level FlightAware Approximate
07:56PM -41.1211 153.3592 294° West 36,000  Level Aus ATC (Calculated)
07:57PM -41.0765 153.2261 294° West  Level FlightAware Approximate
07:57PM -41.0630 153.1862 294° West 36,000  Level Aus ATC (Calculated)
07:58PM -41.0074 153.0215 294° West 36,000 60 Level Aus ATC (Calculated)
08:00PM -40.9284 152.7895 294° West  Level FlightAware Approximate
08:00PM -40.8761 152.6367 294° West 36,000  Level Aus ATC (Calculated)
08:01PM -40.8831 152.6571 294° West  Level FlightAware Approximate
08:02PM -40.8237 152.4847 294° West  Level FlightAware Approximate
08:02PM -40.8091 152.4425 295° West 36,000  Level Aus ATC (Calculated)
08:03PM -40.7685 152.3253 295° West 36,000 120 Level Aus ATC (Calculated)
08:03PM -40.7685 152.3253 295° West 36,000 120 Level Aus ATC (Calculated)
08:05PM -40.7058 152.1454 295° West  Level FlightAware Approximate
08:06PM -40.6597 152.0139 295° West  Level FlightAware Approximate
08:07PM -40.6135 151.8826 295° West  Level FlightAware Approximate
08:07PM -40.5910 151.8189 295° West 36,000  Level Aus ATC (Calculated)
08:09PM -40.4995 151.5614 295° West  Level FlightAware Approximate
08:10PM -40.4528 151.4308 295° West  Level FlightAware Approximate
08:11PM -40.4059 151.3003 295° West  Level FlightAware Approximate
08:12PM -40.3589 151.1700 295° West  Level FlightAware Approximate
08:13PM -40.3117 151.0399 295° West  Level FlightAware Approximate
08:13PM -40.2579 150.8920 116° Southeast 36,000  Level Aus ATC (Calculated)
08:13PM -40.2298 150.8152 116° Southeast 36,000 420 Level Aus ATC (Calculated)
08:15PM -40.1799 150.6791 296° West  Level FlightAware Approximate
08:16PM -40.1321 150.5496 296° West  Level FlightAware Approximate
08:17PM -40.1799 150.6791 116° Southeast  Level FlightAware Approximate
08:17PM -40.0302 150.2843 116° Southeast 18,300  Level Aus ATC (Calculated)
08:17PM -40.3800 151.2270 116° Southeast 419 482 38,100 12,420 Climbing FlightAware
08:18PM -39.9725 150.1343 116° Southeast 18,300 -180 Descending Aus ATC (Calculated)
08:18PM -40.3450 151.1280 295° West 420 483 38,000 20,460 Climbing FlightAware
08:19PM -40.3100 151.0330 295° West 417 480 38,100  Climbing FlightAware
08:19PM -40.2760 150.9410 296° West 414 476 38,000  Descending FlightAware
08:20PM -39.8563 149.8351 117° Southeast 18,300 120 Descending Aus ATC (Calculated)
08:20PM -40.2420 150.8480 296° West 407 468 38,100 14,940 Climbing FlightAware
08:21PM -40.2080 150.7540 296° West 411 473 38,000 -60 Descending FlightAware
08:22PM -40.1640 150.6340 296° West 402 463 38,000  Level FlightAware
08:23PM -40.1250 150.5300 296° West 406 467 38,000  Level FlightAware
08:23PM -39.6807 149.3882 117° Southeast 18,300  Descending Aus ATC (Calculated)
08:23PM -39.6513 149.3139 117° Southeast 18,300 31,080 Level Aus ATC (Calculated)
08:23PM -40.0920 150.4450 296° West 411 473 38,000 25,800 Climbing FlightAware
08:24PM -40.0560 150.3500 296° West 415 478 38,100  Climbing FlightAware
08:25PM -40.0160 150.2460 297° West 417 480 38,000 -120 Descending FlightAware
08:25PM -39.9800 150.1520 297° West 421 484 38,000  Level FlightAware
08:26PM -39.9340 150.0340 297° West 424 488 38,000  Level FlightAware
08:27PM -39.4439 148.7958 118° Southeast 18,300  Descending Aus ATC (Calculated)
08:27PM -39.8970 149.9390 297° West 417 480 38,000 22,260 Climbing FlightAware
08:28PM -39.4140 148.7220 118° Southeast 18,300  Descending Aus ATC (Calculated)
08:28PM -39.8580 149.8390 297° West 419 482 38,000 21,840 Climbing FlightAware
08:28PM -39.8170 149.7340 297° West 420 483 38,000  Level FlightAware
08:29PM -39.7910 149.6660 296° West 421 484 38,000  Level FlightAware
08:30PM -39.7480 149.5560 297° West 423 487 38,000  Level FlightAware
08:31PM -39.7080 149.4560 297° West 426 490 38,000  Level FlightAware
08:31PM -39.2342 148.2807 118° Southeast 18,300  Descending Aus ATC (Calculated)
08:31PM -39.6700 149.3610 297° West 427 491 38,000 14,760 Climbing FlightAware
08:32PM -39.6320 149.2640 297° West 429 494 38,000  Level FlightAware
08:33PM -39.5990 149.1810 297° West 430 495 38,000  Level FlightAware
08:33PM -39.1133 147.9878 118° Southeast 18,300  Descending Aus ATC (Calculated)
08:33PM -39.5660 149.0980 297° West 429 494 38,000 15,960 Climbing FlightAware
08:34PM -39.5247 148.9979 297° West 426 490 38,000  Level Aus ATC (RADAR)
08:34PM -39.5180 148.9770 297° West 427 491 38,000  Level FlightAware
08:34PM -39.4925 148.9197 297° West 414 476 38,000  Level Aus ATC (RADAR)
08:35PM -39.4860 148.9000 297° West 424 488 38,000  Level FlightAware
08:35PM -39.4400 148.7850 297° West 419 482 38,000  Level FlightAware
08:36PM -39.4144 148.7172 297° West 408 470 38,000  Level Aus ATC (RADAR)
08:36PM -39.4040 148.6960 297° West 418 481 38,000  Level FlightAware
08:36PM -39.3816 148.6416 297° West 405 466 38,000  Level Aus ATC (RADAR)
08:37PM -39.3530 148.5710 297° West 418 481 38,000  Level FlightAware
08:38PM -39.3238 148.4977 297° West 406 467 38,000  Level Aus ATC (RADAR)
08:38PM -39.3130 148.4730 297° West 417 480 38,000  Level FlightAware
08:38PM -39.2882 148.4095 297° West 406 467 38,000  Level Aus ATC (RADAR)
08:38PM -39.2780 148.3860 297° West 407 468 38,000  Level FlightAware
08:39PM -39.2420 148.2980 298° West 413 475 38,000 -480 Level FlightAware
08:40PM -39.2020 148.2010 298° West 411 473 37,400 -840 Descending FlightAware
08:40PM -39.1860 148.1611 298° West 402 463 37,200 -900 Descending Aus ATC (RADAR)
08:41PM -39.1670 148.1170 298° West 409 471 36,800 -1,080 Descending FlightAware
08:41PM -39.1502 148.0758 298° West 400 460 36,500 -900 Descending Aus ATC (RADAR)
08:41PM -39.1332 148.0344 298° West 390 449 36,300 -840 Descending Aus ATC (RADAR)
08:41PM -39.1280 148.0210 298° West 383 441 36,100 -540 Descending FlightAware
08:42PM -39.1051 147.9635 298° West 376 433 36,000 -180 Descending Aus ATC (RADAR)
08:42PM -39.0950 147.9430 298° West 385 443 36,000  Level FlightAware
08:43PM -39.0600 147.8590 298° West 393 452 36,000  Level FlightAware
08:43PM -39.0412 147.8104 298° West 383 441 36,000  Level Aus ATC (RADAR)
08:43PM -39.0220 147.7660 298° West 395 455 36,000  Level FlightAware
08:44PM -38.9922 147.6984 298° West 385 443 36,000  Level Aus ATC (RADAR)
08:44PM -38.9940 147.7010 298° West 395 455 36,000  Level FlightAware
08:45PM -38.9520 147.5990 298° West 399 459 36,000  Level FlightAware
08:45PM -38.9130 147.5070 299° West 401 461 36,000  Level FlightAware
08:46PM -38.8760 147.4210 299° West 401 461 36,000  Level FlightAware
08:46PM -38.8580 147.3745 299° West 391 450 36,000  Level Aus ATC (RADAR)
08:47PM -38.8437 147.3439 301° West 391 450 36,000  Level Aus ATC (RADAR)
08:47PM -38.8370 147.3270 301° West 402 463 36,000  Level FlightAware
08:47PM -38.8089 147.2602 301° West 391 450 36,000  Level Aus ATC (RADAR)
08:48PM -38.8020 147.2430 301° West 402 463 36,000  Level FlightAware
08:48PM -38.7691 147.1661 301° West 394 453 36,000  Level Aus ATC (RADAR)
08:48PM -38.7640 147.1550 301° West 403 464 36,000  Level FlightAware
08:49PM -38.7337 147.0825 301° West 393 452 36,000  Level Aus ATC (RADAR)
08:49PM -38.7280 147.0690 301° West 403 464 36,000  Level FlightAware
08:50PM -38.6930 146.9880 299° West 404 465 36,000  Level FlightAware
08:50PM -38.6616 146.9155 299° West 395 455 36,000  Level Aus ATC (RADAR)
08:50PM -38.6520 146.8920 299° West 405 466 36,000  Level FlightAware
08:51PM -38.6160 146.8090 299° West 406 467 36,000  Level FlightAware
08:52PM -38.5730 146.7090 299° West 407 468 36,000  Level FlightAware
08:53PM -38.5030 146.5480 299° West 408 470 36,000 -540 Level FlightAware
08:54PM -38.4650 146.4620 299° West 412 474 35,000 -2,280 Descending FlightAware
08:55PM -38.3870 146.2820 299° West 410 472 31,300 -2,760 Descending FlightAware
08:56PM -38.3360 146.1660 299° West 408 470 28,600 -2,880 Descending FlightAware
08:57PM -38.2960 146.0750 299° West 389 448 26,500 -4,200 Descending FlightAware
08:57PM -38.2655 146.0055 299° West 407 468 23,500 -5,580 Descending Aus ATC (RADAR)
08:58PM -38.2416 145.9510 299° West 423 487 21,600 -3,600 Descending Aus ATC (RADAR)
08:58PM -38.2360 145.9370 299° West 422 486 21,300 -3,000 Descending FlightAware
08:59PM -38.1807 145.7899 299° West 402 463 17,900 -3,120 Descending Aus ATC (RADAR)
08:59PM -38.1770 145.7770 299° West 401 461 17,400 -3,420 Descending FlightAware
09:00PM -38.1339 145.6510 299° West 395 455 14,200 -3,480 Descending Aus ATC (RADAR)
09:00PM -38.1231 145.6199 294° West 390 449 13,500 -2,640 Descending Aus ATC (RADAR)
09:01PM -38.1150 145.5960 294° West 381 438 12,800 -2,580 Descending FlightAware
09:01PM -38.0880 145.5160 293° West 368 423 11,100 -2,100 Descending FlightAware
09:02PM -38.0624 145.4426 293° West 349 402 10,300 -1,200 Descending Aus ATC (RADAR)
09:02PM -38.0560 145.4240 294° West 328 377 10,100 -900 Descending FlightAware
09:02PM -38.0499 145.4078 294° West 332 382 10,000 -840 Descending Aus ATC (RADAR)
09:03PM -38.0302 145.3510 294° West 301 346 9,600 -960 Descending Aus ATC (RADAR)
09:04PM -37.9780 145.2840 294° West 287 330 8,400 -1,380 Descending FlightAware
09:04PM -37.9400 145.2580 332° Northwest 286 329 7,400 -1,740 Descending FlightAware
09:05PM -37.8970 145.2290 332° Northwest 279 321 6,400 -1,680 Descending FlightAware
09:05PM -37.8672 145.2082 332° Northwest 277 319 5,800 -1,440 Descending Aus ATC (RADAR)
09:05PM -37.8660 145.2070 332° Northwest 275 316 5,800 -1,440 Level FlightAware
09:06PM -37.8063 145.1665 332° Northwest 271 312 4,500 -1,320 Descending Aus ATC (RADAR)
09:07PM -37.7638 145.1377 332° Northwest 258 297 3,900 -840 Descending Aus ATC (RADAR)
09:07PM -37.7570 145.1330 332° Northwest 245 282 3,800 -480 Descending FlightAware
09:08PM -37.7290 145.1140 332° Northwest 223 257 3,600 -420 Descending FlightAware
09:09PM -37.6890 145.0550 311° West 193 222 3,200 -240 Descending FlightAware
09:09PM -37.6721 145.0127 311° West 183 211 3,200 -660 Level Aus ATC (RADAR)
09:10PM -37.6690 144.9610 311° West 170 196 2,200 -1,020 Descending FlightAware
09:11PM -37.6680 144.9420 274° West 154 177 1,900 -960 Descending FlightAware
09:11PM -37.6660 144.9210 277° West 131 151 1,500 -840 Descending FlightAware
09:12PM -37.6650 144.8900 272° West 132 152 1,000 -720 Descending FlightAware
09:12PM -37.6640 144.8740 275° West 132 152 800 -720 Descending FlightAware
09:13PM -37.6620 144.8490 276° West 133 153 400 -840 Descending FlightAware